sensor_id;sensor_type;location;lat;lon;timestamp;pressure;altitude;pressure_sealevel;temperature;humidity
11830;BME280;5972;42.134;24.718;2023-06-04T00:01:22;99739.91;;;19.36;100.00
11830;BME280;5972;42.134;24.718;2023-06-04T00:03:49;99745.78;;;19.38;100.00
11830;BME280;5972;42.134;24.718;2023-06-04T00:06:16;99739.91;;;19.36;100.00
11830;BME280;5972;42.134;24.718;2023-06-04T00:08:42;99744.19;;;19.40;100.00
11830;BME280;5972;42.134;24.718;2023-06-04T00:11:09;99734.81;;;19.38;100.00
11830;BME280;5972;42.134;24.718;2023-06-04T00:13:37;99748.91;;;19.36;100.00
11830;BME280;5972;42.134;24.718;2023-06-04T00:16:05;99745.78;;;19.41;100.00
11830;BME280;5972;42.134;24.718;2023-06-04T00:18:31;99739.88;;;19.39;100.00
11830;BME280;5972;42.134;24.718;2023-06-04T00:20:58;99743.47;;;19.33;100.00
11830;BME280;5972;42.134;24.718;2023-06-04T00:23:25;99743.03;;;19.38;100.00
11830;BME280;5972;42.134;24.718;2023-06-04T00:25:52;99737.56;;;19.38;100.00
11830;BME280;5972;42.134;24.718;2023-06-04T00:28:19;99742.63;;;19.39;100.00
11830;BME280;5972;42.134;24.718;2023-06-04T00:30:47;99744.19;;;19.40;100.00
11830;BME280;5972;42.134;24.718;2023-06-04T00:33:14;99743.44;;;19.36;100.00
11830;BME280;5972;42.134;24.718;2023-06-04T00:35:41;99745.81;;;19.27;100.00
11830;BME280;5972;42.134;24.718;2023-06-04T00:38:08;99746.19;;;19.36;100.00
11830;BME280;5972;42.134;24.718;2023-06-04T00:40:35;99754.41;;;19.36;100.00
11830;BME280;5972;42.134;24.718;2023-06-04T00:43:02;99757.19;;;19.33;100.00
11830;BME280;5972;42.134;24.718;2023-06-04T00:45:29;99753.25;;;19.30;100.00
11830;BME280;5972;42.134;24.718;2023-06-04T00:47:58;99754.81;;;19.35;100.00
11830;BME280;5972;42.134;24.718;2023-06-04T00:50:24;99763.84;;;19.28;100.00
11830;BME280;5972;42.134;24.718;2023-06-04T00:52:51;99743.06;;;19.31;100.00
11830;BME280;5972;42.134;24.718;2023-06-04T00:55:18;99756.34;;;19.43;100.00
11830;BME280;5972;42.134;24.718;2023-06-04T00:57:45;99760.66;;;19.51;100.00
11830;BME280;5972;42.134;24.718;2023-06-04T01:00:13;99759.88;;;19.54;100.00
11830;BME280;5972;42.134;24.718;2023-06-04T01:02:41;99758.31;;;19.49;100.00
11830;BME280;5972;42.134;24.718;2023-06-04T01:05:14;99753.59;;;19.39;100.00
11830;BME280;5972;42.134;24.718;2023-06-04T01:07:44;99761.06;;;19.53;100.00
11830;BME280;5972;42.134;24.718;2023-06-04T01:10:12;99764.94;;;19.63;100.00
11830;BME280;5972;42.134;24.718;2023-06-04T01:12:39;99767.69;;;19.59;100.00
11830;BME280;5972;42.134;24.718;2023-06-04T01:15:08;99762.97;;;19.56;100.00
11830;BME280;5972;42.134;24.718;2023-06-04T01:17:38;99772.00;;;19.64;100.00
11830;BME280;5972;42.134;24.718;2023-06-04T01:20:20;99754.78;;;19.52;100.00
11830;BME280;5972;42.134;24.718;2023-06-04T01:23:00;99772.00;;;19.64;100.00
11830;BME280;5972;42.134;24.718;2023-06-04T01:25:33;99763.38;;;19.58;100.00
11830;BME280;5972;42.134;24.718;2023-06-04T01:28:01;99773.53;;;19.72;100.00
11830;BME280;5972;42.134;24.718;2023-06-04T01:30:31;99769.22;;;19.71;100.00
11830;BME280;5972;42.134;24.718;2023-06-04T01:32:58;99769.19;;;19.74;100.00
11830;BME280;5972;42.134;24.718;2023-06-04T01:35:28;99772.69;;;19.78;100.00
11830;BME280;5972;42.134;24.718;2023-06-04T01:37:57;99779.38;;;19.74;100.00
11830;BME280;5972;42.134;24.718;2023-06-04T01:40:24;99773.91;;;19.74;100.00
11830;BME280;5972;42.134;24.718;2023-06-04T01:42:51;99773.13;;;19.70;100.00
11830;BME280;5972;42.134;24.718;2023-06-04T01:45:18;99770.84;;;19.61;100.00
11830;BME280;5972;42.134;24.718;2023-06-04T01:47:45;99746.94;;;19.44;100.00
11830;BME280;5972;42.134;24.718;2023-06-04T01:50:12;99768.44;;;19.63;100.00
11830;BME280;5972;42.134;24.718;2023-06-04T01:52:40;99774.34;;;19.58;100.00
11830;BME280;5972;42.134;24.718;2023-06-04T01:55:09;99768.47;;;19.67;100.00
11830;BME280;5972;42.134;24.718;2023-06-04T01:57:37;99773.50;;;19.75;100.00
11830;BME280;5972;42.134;24.718;2023-06-04T02:00:06;99778.16;;;19.85;100.00
11830;BME280;5972;42.134;24.718;2023-06-04T02:02:35;99777.06;;;19.72;100.00
11830;BME280;5972;42.134;24.718;2023-06-04T02:05:03;99782.91;;;19.81;100.00
11830;BME280;5972;42.134;24.718;2023-06-04T02:07:33;99779.72;;;19.90;100.00
11830;BME280;5972;42.134;24.718;2023-06-04T02:10:01;99780.94;;;19.82;100.00
11830;BME280;5972;42.134;24.718;2023-06-04T02:12:28;99791.16;;;19.78;100.00
11830;BME280;5972;42.134;24.718;2023-06-04T02:14:55;99790.75;;;19.79;100.00
11830;BME280;5972;42.134;24.718;2023-06-04T02:17:21;99798.63;;;19.77;100.00
11830;BME280;5972;42.134;24.718;2023-06-04T02:19:48;99787.63;;;19.74;100.00
11830;BME280;5972;42.134;24.718;2023-06-04T02:22:16;99796.25;;;19.76;100.00
11830;BME280;5972;42.134;24.718;2023-06-04T02:24:43;99780.19;;;19.71;100.00
11830;BME280;5972;42.134;24.718;2023-06-04T02:27:12;99794.66;;;19.82;100.00
11830;BME280;5972;42.134;24.718;2023-06-04T02:29:39;99805.25;;;19.80;100.00
11830;BME280;5972;42.134;24.718;2023-06-04T02:32:07;99801.75;;;19.76;100.00
11830;BME280;5972;42.134;24.718;2023-06-04T02:34:34;99808.41;;;19.75;100.00
11830;BME280;5972;42.134;24.718;2023-06-04T02:37:02;99801.78;;;19.69;100.00
11830;BME280;5972;42.134;24.718;2023-06-04T02:39:29;99810.81;;;19.66;100.00
11830;BME280;5972;42.134;24.718;2023-06-04T02:41:56;99808.88;;;19.59;100.00
11830;BME280;5972;42.134;24.718;2023-06-04T02:44:24;99809.25;;;19.61;100.00
11830;BME280;5972;42.134;24.718;2023-06-04T02:46:51;99815.88;;;19.67;100.00
11830;BME280;5972;42.134;24.718;2023-06-04T02:49:17;99811.19;;;19.68;100.00
11830;BME280;5972;42.134;24.718;2023-06-04T02:51:44;99812.78;;;19.65;100.00
11830;BME280;5972;42.134;24.718;2023-06-04T02:54:12;99815.53;;;19.58;100.00
11830;BME280;5972;42.134;24.718;2023-06-04T02:56:39;99817.13;;;19.52;100.00
11830;BME280;5972;42.134;24.718;2023-06-04T02:59:06;99828.47;;;19.50;100.00
11830;BME280;5972;42.134;24.718;2023-06-04T03:01:36;99828.09;;;19.41;100.00
11830;BME280;5972;42.134;24.718;2023-06-04T03:04:02;99821.47;;;19.32;100.00
11830;BME280;5972;42.134;24.718;2023-06-04T03:06:30;99835.53;;;19.34;100.00
11830;BME280;5972;42.134;24.718;2023-06-04T03:08:57;99815.19;;;19.28;100.00
11830;BME280;5972;42.134;24.718;2023-06-04T03:11:24;99834.00;;;19.29;100.00
11830;BME280;5972;42.134;24.718;2023-06-04T03:13:51;99844.97;;;19.26;100.00
11830;BME280;5972;42.134;24.718;2023-06-04T03:16:18;99836.75;;;19.26;100.00
11830;BME280;5972;42.134;24.718;2023-06-04T03:18:47;99839.09;;;19.27;100.00
11830;BME280;5972;42.134;24.718;2023-06-04T03:21:14;99842.22;;;19.33;100.00
11830;BME280;5972;42.134;24.718;2023-06-04T03:23:41;99837.13;;;19.31;100.00
11830;BME280;5972;42.134;24.718;2023-06-04T03:26:07;99842.19;;;19.40;100.00
11830;BME280;5972;42.134;24.718;2023-06-04T03:28:34;99841.03;;;19.41;100.00
11830;BME280;5972;42.134;24.718;2023-06-04T03:31:01;99848.47;;;19.51;100.00
11830;BME280;5972;42.134;24.718;2023-06-04T03:33:28;99852.78;;;19.52;100.00
11830;BME280;5972;42.134;24.718;2023-06-04T03:35:56;99839.47;;;19.47;100.00
11830;BME280;5972;42.134;24.718;2023-06-04T03:38:24;99855.53;;;19.59;100.00
11830;BME280;5972;42.134;24.718;2023-06-04T03:40:51;99853.16;;;19.65;100.00
11830;BME280;5972;42.134;24.718;2023-06-04T03:43:18;99863.28;;;19.85;100.00
11830;BME280;5972;42.134;24.718;2023-06-04T03:45:45;99860.53;;;19.92;100.00
11830;BME280;5972;42.134;24.718;2023-06-04T03:48:11;99850.69;;;19.99;100.00
11830;BME280;5972;42.134;24.718;2023-06-04T03:50:38;99873.03;;;20.04;100.00
11830;BME280;5972;42.134;24.718;2023-06-04T03:53:06;99866.31;;;20.12;100.00
11830;BME280;5972;42.134;24.718;2023-06-04T03:55:33;99876.09;;;20.24;100.00
11830;BME280;5972;42.134;24.718;2023-06-04T03:58:00;99871.38;;;20.31;100.00
11830;BME280;5972;42.134;24.718;2023-06-04T04:00:27;99869.78;;;20.38;100.00
11830;BME280;5972;42.134;24.718;2023-06-04T04:02:54;99862.69;;;20.40;100.00
11830;BME280;5972;42.134;24.718;2023-06-04T04:05:21;99867.00;;;20.45;100.00
11830;BME280;5972;42.134;24.718;2023-06-04T04:07:48;99886.16;;;20.55;100.00
11830;BME280;5972;42.134;24.718;2023-06-04T04:10:16;99881.88;;;20.47;100.00
11830;BME280;5972;42.134;24.718;2023-06-04T04:12:43;99886.59;;;20.47;100.00
11830;BME280;5972;42.134;24.718;2023-06-04T04:15:10;99888.16;;;20.48;100.00
11830;BME280;5972;42.134;24.718;2023-06-04T04:17:37;99897.63;;;20.43;100.00
11830;BME280;5972;42.134;24.718;2023-06-04T04:20:04;99893.28;;;20.46;100.00
11830;BME280;5972;42.134;24.718;2023-06-04T04:22:31;99898.34;;;20.51;100.00
11830;BME280;5972;42.134;24.718;2023-06-04T04:24:58;99898.75;;;20.53;100.00
11830;BME280;5972;42.134;24.718;2023-06-04T04:27:28;99903.84;;;20.54;100.00
11830;BME280;5972;42.134;24.718;2023-06-04T04:29:55;99901.88;;;20.55;100.00
11830;BME280;5972;42.134;24.718;2023-06-04T04:32:25;99882.28;;;20.49;100.00
11830;BME280;5972;42.134;24.718;2023-06-04T04:34:54;99888.53;;;20.53;100.00
11830;BME280;5972;42.134;24.718;2023-06-04T04:37:21;99906.50;;;20.68;100.00
11830;BME280;5972;42.134;24.718;2023-06-04T04:39:48;99905.72;;;20.71;100.00
11830;BME280;5972;42.134;24.718;2023-06-04T04:42:17;99907.69;;;20.67;100.00
11830;BME280;5972;42.134;24.718;2023-06-04T04:44:45;99912.38;;;20.70;100.00
11830;BME280;5972;42.134;24.718;2023-06-04T04:47:14;99913.97;;;20.68;100.00
11830;BME280;5972;42.134;24.718;2023-06-04T04:49:41;99911.59;;;20.70;100.00
11830;BME280;5972;42.134;24.718;2023-06-04T04:52:08;99915.47;;;20.80;100.00
11830;BME280;5972;42.134;24.718;2023-06-04T04:54:34;99909.94;;;20.87;100.00
11830;BME280;5972;42.134;24.718;2023-06-04T04:57:01;99915.81;;;20.85;100.00
11830;BME280;5972;42.134;24.718;2023-06-04T04:59:28;99930.34;;;20.89;100.00
11830;BME280;5972;42.134;24.718;2023-06-04T05:01:56;99914.28;;;20.81;100.00
11830;BME280;5972;42.134;24.718;2023-06-04T05:04:23;99916.53;;;21.00;100.00
11830;BME280;5972;42.134;24.718;2023-06-04T05:06:49;99921.94;;;21.07;100.00
11830;BME280;5972;42.134;24.718;2023-06-04T05:09:16;99924.75;;;21.03;100.00
11830;BME280;5972;42.134;24.718;2023-06-04T05:11:43;99923.59;;;20.97;100.00
11830;BME280;5972;42.134;24.718;2023-06-04T05:14:10;99919.97;;;21.07;100.00
11830;BME280;5972;42.134;24.718;2023-06-04T05:16:37;99927.44;;;21.10;100.00
11830;BME280;5972;42.134;24.718;2023-06-04T05:19:07;99936.09;;;21.16;100.00
11830;BME280;5972;42.134;24.718;2023-06-04T05:21:36;99936.78;;;21.27;100.00
11830;BME280;5972;42.134;24.718;2023-06-04T05:24:03;99924.47;;;21.42;100.00
11830;BME280;5972;42.134;24.718;2023-06-04T05:26:30;99928.63;;;21.61;100.00
11830;BME280;5972;42.134;24.718;2023-06-04T05:28:56;99934.38;;;21.74;100.00
11830;BME280;5972;42.134;24.718;2023-06-04T05:31:23;99937.34;;;21.93;100.00
11830;BME280;5972;42.134;24.718;2023-06-04T05:33:51;99938.03;;;22.05;100.00
11830;BME280;5972;42.134;24.718;2023-06-04T05:36:20;99944.25;;;22.12;100.00
11830;BME280;5972;42.134;24.718;2023-06-04T05:38:47;99948.09;;;22.18;100.00
11830;BME280;5972;42.134;24.718;2023-06-04T05:41:22;99944.19;;;22.16;100.00
11830;BME280;5972;42.134;24.718;2023-06-04T05:43:51;99952.75;;;22.25;100.00
11830;BME280;5972;42.134;24.718;2023-06-04T05:46:18;99952.09;;;22.14;100.00
11830;BME280;5972;42.134;24.718;2023-06-04T05:48:45;99957.97;;;22.16;100.00
11830;BME280;5972;42.134;24.718;2023-06-04T05:51:13;99957.69;;;22.07;100.00
11830;BME280;5972;42.134;24.718;2023-06-04T05:53:41;99968.50;;;22.24;100.00
11830;BME280;5972;42.134;24.718;2023-06-04T05:56:08;99967.78;;;22.20;100.00
11830;BME280;5972;42.134;24.718;2023-06-04T05:58:35;99964.09;;;22.30;100.00
11830;BME280;5972;42.134;24.718;2023-06-04T06:01:03;99964.81;;;22.38;100.00
11830;BME280;5972;42.134;24.718;2023-06-04T06:03:30;99981.59;;;22.51;100.00
11830;BME280;5972;42.134;24.718;2023-06-04T06:05:56;99976.03;;;22.54;100.00
11830;BME280;5972;42.134;24.718;2023-06-04T06:08:23;99974.22;;;22.40;100.00
11830;BME280;5972;42.134;24.718;2023-06-04T06:10:52;99985.13;;;22.51;100.00
11830;BME280;5972;42.134;24.718;2023-06-04T06:13:19;99975.06;;;22.37;100.00
11830;BME280;5972;42.134;24.718;2023-06-04T06:15:46;99983.31;;;22.37;100.00
11830;BME280;5972;42.134;24.718;2023-06-04T06:18:13;99979.31;;;22.42;100.00
11830;BME280;5972;42.134;24.718;2023-06-04T06:20:40;99987.13;;;22.47;100.00
11830;BME280;5972;42.134;24.718;2023-06-04T06:23:07;99996.16;;;22.51;100.00
11830;BME280;5972;42.134;24.718;2023-06-04T06:25:34;99987.56;;;22.46;100.00
11830;BME280;5972;42.134;24.718;2023-06-04T06:28:02;99992.75;;;22.40;100.00
11830;BME280;5972;42.134;24.718;2023-06-04T06:30:29;99987.78;;;22.58;100.00
11830;BME280;5972;42.134;24.718;2023-06-04T06:32:56;99995.38;;;22.85;100.00
11830;BME280;5972;42.134;24.718;2023-06-04T06:35:23;100001.31;;;22.83;100.00
11830;BME280;5972;42.134;24.718;2023-06-04T06:37:49;99988.44;;;23.00;100.00
11830;BME280;5972;42.134;24.718;2023-06-04T06:40:16;100002.56;;;23.32;100.00
11830;BME280;5972;42.134;24.718;2023-06-04T06:42:48;99996.59;;;23.60;100.00
11830;BME280;5972;42.134;24.718;2023-06-04T06:45:16;99994.06;;;23.93;100.00
11830;BME280;5972;42.134;24.718;2023-06-04T06:47:43;99992.69;;;23.81;97.70
11830;BME280;5972;42.134;24.718;2023-06-04T06:50:10;100013.53;;;23.86;97.16
11830;BME280;5972;42.134;24.718;2023-06-04T06:52:37;99999.97;;;23.72;96.94
11830;BME280;5972;42.134;24.718;2023-06-04T06:55:05;100007.78;;;23.77;95.22
11830;BME280;5972;42.134;24.718;2023-06-04T06:57:32;100009.97;;;23.39;97.42
11830;BME280;5972;42.134;24.718;2023-06-04T07:00:00;100005.78;;;23.27;99.03
11830;BME280;5972;42.134;24.718;2023-06-04T07:02:28;100010.59;;;23.23;100.00
11830;BME280;5972;42.134;24.718;2023-06-04T07:04:55;100008.75;;;23.13;100.00
11830;BME280;5972;42.134;24.718;2023-06-04T07:07:22;100002.34;;;22.93;100.00
11830;BME280;5972;42.134;24.718;2023-06-04T07:09:49;100010.22;;;22.94;100.00
11830;BME280;5972;42.134;24.718;2023-06-04T07:12:16;100001.00;;;22.74;100.00
11830;BME280;5972;42.134;24.718;2023-06-04T07:14:43;100009.66;;;22.76;100.00
11830;BME280;5972;42.134;24.718;2023-06-04T07:17:10;100019.31;;;22.57;100.00
11830;BME280;5972;42.134;24.718;2023-06-04T07:19:38;100021.38;;;22.16;100.00
11830;BME280;5972;42.134;24.718;2023-06-04T07:22:05;100029.88;;;21.94;100.00
11830;BME280;5972;42.134;24.718;2023-06-04T07:24:32;100028.66;;;21.92;100.00
11830;BME280;5972;42.134;24.718;2023-06-04T07:26:58;100029.41;;;22.00;100.00
11830;BME280;5972;42.134;24.718;2023-06-04T07:29:25;100027.53;;;21.86;100.00
11830;BME280;5972;42.134;24.718;2023-06-04T07:31:52;100038.53;;;21.89;100.00
11830;BME280;5972;42.134;24.718;2023-06-04T07:34:19;100032.56;;;21.98;100.00
11830;BME280;5972;42.134;24.718;2023-06-04T07:36:47;100031.06;;;21.90;100.00
11830;BME280;5972;42.134;24.718;2023-06-04T07:39:14;100046.03;;;21.89;100.00
11830;BME280;5972;42.134;24.718;2023-06-04T07:41:40;100033.97;;;21.69;100.00
11830;BME280;5972;42.134;24.718;2023-06-04T07:44:07;100044.22;;;21.68;100.00
11830;BME280;5972;42.134;24.718;2023-06-04T07:46:34;100052.41;;;21.79;100.00
11830;BME280;5972;42.134;24.718;2023-06-04T07:49:01;100044.44;;;21.88;100.00
11830;BME280;5972;42.134;24.718;2023-06-04T07:51:27;100049.50;;;22.00;100.00
11830;BME280;5972;42.134;24.718;2023-06-04T07:53:56;100047.25;;;21.84;100.00
11830;BME280;5972;42.134;24.718;2023-06-04T07:56:22;100054.47;;;21.64;100.00
11830;BME280;5972;42.134;24.718;2023-06-04T07:58:49;100056.91;;;21.55;100.00
11830;BME280;5972;42.134;24.718;2023-06-04T08:01:16;100037.72;;;21.44;100.00
11830;BME280;5972;42.134;24.718;2023-06-04T08:03:43;100053.81;;;21.49;100.00
11830;BME280;5972;42.134;24.718;2023-06-04T08:06:10;100052.94;;;21.60;100.00
11830;BME280;5972;42.134;24.718;2023-06-04T08:08:42;100046.41;;;21.36;100.00
11830;BME280;5972;42.134;24.718;2023-06-04T08:11:11;100039.03;;;21.26;100.00
11830;BME280;5972;42.134;24.718;2023-06-04T08:13:39;100061.00;;;21.33;100.00
11830;BME280;5972;42.134;24.718;2023-06-04T08:16:06;100053.88;;;21.35;100.00
11830;BME280;5972;42.134;24.718;2023-06-04T08:18:33;100037.44;;;21.28;100.00
11830;BME280;5972;42.134;24.718;2023-06-04T08:21:00;100055.81;;;21.45;100.00
11830;BME280;5972;42.134;24.718;2023-06-04T08:23:27;100057.03;;;21.37;100.00
11830;BME280;5972;42.134;24.718;2023-06-04T08:25:54;100049.53;;;21.45;100.00
11830;BME280;5972;42.134;24.718;2023-06-04T08:28:22;100070.25;;;21.60;100.00
11830;BME280;5972;42.134;24.718;2023-06-04T08:30:49;100055.03;;;21.45;100.00
11830;BME280;5972;42.134;24.718;2023-06-04T08:33:16;100058.09;;;21.54;100.00
11830;BME280;5972;42.134;24.718;2023-06-04T08:35:42;100058.84;;;21.58;100.00
11830;BME280;5972;42.134;24.718;2023-06-04T08:38:09;100068.16;;;21.75;100.00
11830;BME280;5972;42.134;24.718;2023-06-04T08:40:36;100065.00;;;21.76;100.00
11830;BME280;5972;42.134;24.718;2023-06-04T08:43:04;100075.56;;;21.85;100.00
11830;BME280;5972;42.134;24.718;2023-06-04T08:45:33;100063.72;;;21.88;100.00
11830;BME280;5972;42.134;24.718;2023-06-04T08:48:09;100055.34;;;22.02;100.00
11830;BME280;5972;42.134;24.718;2023-06-04T08:50:39;100064.75;;;22.12;100.00
11830;BME280;5972;42.134;24.718;2023-06-04T08:53:11;100059.72;;;22.00;100.00
11830;BME280;5972;42.134;24.718;2023-06-04T08:55:40;100065.94;;;22.11;100.00
11830;BME280;5972;42.134;24.718;2023-06-04T08:58:10;100068.75;;;22.04;100.00
11830;BME280;5972;42.134;24.718;2023-06-04T09:00:39;100082.91;;;22.06;100.00
11830;BME280;5972;42.134;24.718;2023-06-04T09:03:06;100062.84;;;22.02;100.00
11830;BME280;5972;42.134;24.718;2023-06-04T09:05:34;100063.94;;;22.11;100.00
11830;BME280;5972;42.134;24.718;2023-06-04T09:08:04;100051.28;;;22.17;100.00
11830;BME280;5972;42.134;24.718;2023-06-04T09:10:34;100061.78;;;22.29;100.00
11830;BME280;5972;42.134;24.718;2023-06-04T09:13:03;100065.97;;;22.45;100.00
11830;BME280;5972;42.134;24.718;2023-06-04T09:15:33;100053.50;;;22.33;100.00
11830;BME280;5972;42.134;24.718;2023-06-04T09:18:01;100049.91;;;22.36;100.00
11830;BME280;5972;42.134;24.718;2023-06-04T09:20:28;100071.09;;;22.43;100.00
11830;BME280;5972;42.134;24.718;2023-06-04T09:22:55;100063.69;;;22.36;100.00
11830;BME280;5972;42.134;24.718;2023-06-04T09:25:23;100070.19;;;22.56;100.00
11830;BME280;5972;42.134;24.718;2023-06-04T09:27:51;100065.69;;;22.73;100.00
11830;BME280;5972;42.134;24.718;2023-06-04T09:30:18;100067.16;;;22.81;100.00
11830;BME280;5972;42.134;24.718;2023-06-04T09:32:45;100072.97;;;22.53;100.00
11830;BME280;5972;42.134;24.718;2023-06-04T09:35:14;100066.44;;;22.36;100.00
11830;BME280;5972;42.134;24.718;2023-06-04T09:37:43;100068.97;;;22.20;100.00
11830;BME280;5972;42.134;24.718;2023-06-04T09:40:10;100062.44;;;22.40;100.00
11830;BME280;5972;42.134;24.718;2023-06-04T09:42:44;100066.75;;;22.45;100.00
11830;BME280;5972;42.134;24.718;2023-06-04T09:45:11;100067.91;;;22.48;100.00
11830;BME280;5972;42.134;24.718;2023-06-04T09:47:40;100062.63;;;22.60;100.00
11830;BME280;5972;42.134;24.718;2023-06-04T09:50:08;100074.69;;;22.77;100.00
11830;BME280;5972;42.134;24.718;2023-06-04T09:52:36;100065.34;;;22.64;100.00
11830;BME280;5972;42.134;24.718;2023-06-04T09:55:15;100073.00;;;22.49;100.00
11830;BME280;5972;42.134;24.718;2023-06-04T09:57:44;100076.88;;;22.55;100.00
11830;BME280;5972;42.134;24.718;2023-06-04T10:00:14;100078.19;;;22.81;100.00
11830;BME280;5972;42.134;24.718;2023-06-04T10:02:44;100071.53;;;22.78;100.00
11830;BME280;5972;42.134;24.718;2023-06-04T10:05:11;100071.75;;;22.91;100.00
11830;BME280;5972;42.134;24.718;2023-06-04T10:07:42;100067.53;;;22.79;100.00
11830;BME280;5972;42.134;24.718;2023-06-04T10:10:11;100065.81;;;22.93;100.00
11830;BME280;5972;42.134;24.718;2023-06-04T10:12:41;100063.00;;;22.96;100.00
11830;BME280;5972;42.134;24.718;2023-06-04T10:15:11;100078.34;;;23.01;100.00
11830;BME280;5972;42.134;24.718;2023-06-04T10:17:39;100072.91;;;22.94;100.00
11830;BME280;5972;42.134;24.718;2023-06-04T10:20:07;100075.59;;;23.01;100.00
11830;BME280;5972;42.134;24.718;2023-06-04T10:22:35;100070.25;;;23.13;97.47
11830;BME280;5972;42.134;24.718;2023-06-04T10:25:04;100065.50;;;23.17;97.84
11830;BME280;5972;42.134;24.718;2023-06-04T10:27:32;100073.47;;;23.12;97.85
11830;BME280;5972;42.134;24.718;2023-06-04T10:30:01;100059.06;;;23.24;98.32
11830;BME280;5972;42.134;24.718;2023-06-04T10:32:28;100056.00;;;23.49;98.36
11830;BME280;5972;42.134;24.718;2023-06-04T10:34:56;100058.88;;;23.65;90.13
11830;BME280;5972;42.134;24.718;2023-06-04T10:37:24;100059.06;;;23.54;82.74
11830;BME280;5972;42.134;24.718;2023-06-04T10:39:52;100051.94;;;23.57;77.74
11830;BME280;5972;42.134;24.718;2023-06-04T10:42:21;100042.19;;;23.72;79.39
11830;BME280;5972;42.134;24.718;2023-06-04T10:44:49;100051.81;;;23.87;74.86
11830;BME280;5972;42.134;24.718;2023-06-04T10:47:20;100062.44;;;23.89;79.29
11830;BME280;5972;42.134;24.718;2023-06-04T10:49:49;100051.44;;;23.85;74.91
11830;BME280;5972;42.134;24.718;2023-06-04T10:52:16;100052.00;;;23.77;71.72
11830;BME280;5972;42.134;24.718;2023-06-04T10:54:46;100047.78;;;23.92;76.29
11830;BME280;5972;42.134;24.718;2023-06-04T10:57:15;100033.28;;;24.08;71.17
11830;BME280;5972;42.134;24.718;2023-06-04T10:59:53;100053.31;;;23.92;63.69
11830;BME280;5972;42.134;24.718;2023-06-04T11:02:20;100042.44;;;23.81;64.28
11830;BME280;5972;42.134;24.718;2023-06-04T11:04:47;100036.97;;;24.01;68.77
11830;BME280;5972;42.134;24.718;2023-06-04T11:07:27;100041.09;;;24.13;77.67
11830;BME280;5972;42.134;24.718;2023-06-04T11:09:55;100035.75;;;24.25;95.14
11830;BME280;5972;42.134;24.718;2023-06-04T11:12:22;100038.69;;;23.91;93.15
11830;BME280;5972;42.134;24.718;2023-06-04T11:14:57;100042.44;;;24.04;89.71
11830;BME280;5972;42.134;24.718;2023-06-04T11:17:24;100051.56;;;24.01;91.91
11830;BME280;5972;42.134;24.718;2023-06-04T11:19:51;100035.75;;;24.02;84.31
11830;BME280;5972;42.134;24.718;2023-06-04T11:22:20;100047.97;;;24.04;84.23
11830;BME280;5972;42.134;24.718;2023-06-04T11:24:47;100047.72;;;24.19;73.81
11830;BME280;5972;42.134;24.718;2023-06-04T11:27:14;100042.72;;;24.33;76.56
11830;BME280;5972;42.134;24.718;2023-06-04T11:29:41;100050.16;;;24.13;76.03
11830;BME280;5972;42.134;24.718;2023-06-04T11:32:09;100046.97;;;24.15;78.86
11830;BME280;5972;42.134;24.718;2023-06-04T11:34:36;100033.53;;;24.17;78.99
11830;BME280;5972;42.134;24.718;2023-06-04T11:37:09;100030.94;;;24.29;74.99
11830;BME280;5972;42.134;24.718;2023-06-04T11:39:36;100038.09;;;24.47;82.47
11830;BME280;5972;42.134;24.718;2023-06-04T11:42:05;100041.16;;;24.52;71.22
11830;BME280;5972;42.134;24.718;2023-06-04T11:44:32;100043.44;;;24.57;71.14
11830;BME280;5972;42.134;24.718;2023-06-04T11:46:59;100041.94;;;24.72;73.70
11830;BME280;5972;42.134;24.718;2023-06-04T11:49:28;100038.31;;;24.75;79.36
11830;BME280;5972;42.134;24.718;2023-06-04T11:51:55;100042.63;;;24.76;79.72
11830;BME280;5972;42.134;24.718;2023-06-04T11:54:22;100041.84;;;24.76;76.96
11830;BME280;5972;42.134;24.718;2023-06-04T11:56:49;100002.84;;;24.70;71.54
11830;BME280;5972;42.134;24.718;2023-06-04T11:59:18;100030.56;;;25.06;73.61
11830;BME280;5972;42.134;24.718;2023-06-04T12:01:46;100032.06;;;25.27;76.40
11830;BME280;5972;42.134;24.718;2023-06-04T12:04:14;100029.94;;;25.51;70.75
11830;BME280;5972;42.134;24.718;2023-06-04T12:06:52;100038.06;;;25.58;67.59
11830;BME280;5972;42.134;24.718;2023-06-04T12:09:22;100039.28;;;25.41;62.33
11830;BME280;5972;42.134;24.718;2023-06-04T12:11:50;100035.19;;;24.93;58.98
11830;BME280;5972;42.134;24.718;2023-06-04T12:14:17;100040.78;;;24.70;62.72
11830;BME280;5972;42.134;24.718;2023-06-04T12:16:54;100048.25;;;24.73;71.15
11830;BME280;5972;42.134;24.718;2023-06-04T12:19:21;100042.13;;;24.81;74.91
11830;BME280;5972;42.134;24.718;2023-06-04T12:22:00;100036.81;;;24.71;71.73
11830;BME280;5972;42.134;24.718;2023-06-04T12:24:28;100038.38;;;24.92;75.08
11830;BME280;5972;42.134;24.718;2023-06-04T12:27:06;100042.84;;;25.05;65.54
11830;BME280;5972;42.134;24.718;2023-06-04T12:29:34;100031.94;;;25.14;68.94
11830;BME280;5972;42.134;24.718;2023-06-04T12:32:04;100044.34;;;25.26;74.92
11830;BME280;5972;42.134;24.718;2023-06-04T12:34:33;100036.03;;;25.26;76.26
11830;BME280;5972;42.134;24.718;2023-06-04T12:37:01;100046.28;;;25.29;79.24
11830;BME280;5972;42.134;24.718;2023-06-04T12:39:31;100050.28;;;25.08;76.04
11830;BME280;5972;42.134;24.718;2023-06-04T12:41:58;100048.19;;;24.96;81.07
11830;BME280;5972;42.134;24.718;2023-06-04T12:44:28;100037.88;;;24.97;83.68
11830;BME280;5972;42.134;24.718;2023-06-04T12:46:56;100035.19;;;24.93;83.86
11830;BME280;5972;42.134;24.718;2023-06-04T12:49:23;100052.66;;;24.70;83.83
11830;BME280;5972;42.134;24.718;2023-06-04T12:51:49;100050.97;;;24.57;86.42